TimeMST,TemperatureF,Dew PointF,Humidity,Sea Level PressureIn,VisibilityMPH,Wind Direction,Wind SpeedMPH,Gust SpeedMPH,PrecipitationIn,Events,Conditions,WindDirDegrees,DateUTC
12:15 AM,-5.8,-11.2,77,30.05,10.0,SSW,8.1,-,N/A,,Clear,210,2014-02-02 07:15:00
12:35 AM,-5.8,-7.6,92,30.04,10.0,South,8.1,-,N/A,,Clear,170,2014-02-02 07:35:00
12:55 AM,-5.8,-11.2,77,30.03,10.0,SSW,10.4,-,N/A,,Clear,200,2014-02-02 07:55:00
1:16 AM,-2.2,-2.2,100,30.03,10.0,SSW,9.2,-,N/A,,Clear,200,2014-02-02 08:16:00
1:35 AM,-4.0,-9.4,78,30.02,10.0,SSW,10.4,-,N/A,,Clear,200,2014-02-02 08:35:00
1:55 AM,-2.2,-5.8,85,30.02,10.0,South,10.4,-,N/A,,Clear,190,2014-02-02 08:55:00
2:15 AM,-2.2,-7.6,78,30.02,10.0,South,12.7,-,N/A,,Clear,190,2014-02-02 09:15:00
2:35 AM,-2.2,-7.6,78,30.02,10.0,SSW,11.5,-,N/A,,Clear,200,2014-02-02 09:35:00
2:55 AM,-2.2,-7.6,78,30.01,10.0,South,12.7,-,N/A,,Clear,190,2014-02-02 09:55:00
3:15 AM,-4.0,-7.6,85,30.01,10.0,South,11.5,-,N/A,,Clear,190,2014-02-02 10:15:00
3:35 AM,-4.0,-9.4,78,30.00,10.0,South,10.4,-,N/A,,Clear,180,2014-02-02 10:35:00
3:55 AM,-5.8,-9.4,84,30.00,10.0,South,8.1,-,N/A,,Clear,170,2014-02-02 10:55:00
4:15 AM,-7.6,-11.2,84,30.00,10.0,South,9.2,-,N/A,,Clear,170,2014-02-02 11:15:00
4:35 AM,-7.6,-13.0,77,30.00,10.0,South,9.2,-,N/A,,Clear,170,2014-02-02 11:35:00
4:55 AM,-9.4,-14.8,77,29.99,10.0,South,10.4,-,N/A,,Clear,170,2014-02-02 11:55:00
5:15 AM,-9.4,-11.2,92,29.98,10.0,South,10.4,-,N/A,,Partly Cloudy,180,2014-02-02 12:15:00
5:35 AM,-7.6,-7.6,100,29.97,10.0,South,11.5,-,N/A,,Clear,180,2014-02-02 12:35:00
5:55 AM,-7.6,-11.2,84,29.98,10.0,South,10.4,-,N/A,,Clear,180,2014-02-02 12:55:00
6:15 AM,-9.4,-13.0,84,29.98,10.0,South,6.9,-,N/A,,Clear,170,2014-02-02 13:15:00
6:35 AM,-9.4,-14.8,77,29.98,10.0,South,4.6,-,N/A,,Clear,170,2014-02-02 13:35:00
6:55 AM,-9.4,-14.8,77,29.98,10.0,South,3.5,-,N/A,,Clear,180,2014-02-02 13:55:00
7:15 AM,-9.4,-14.8,77,29.98,10.0,Calm,Calm,-,N/A,,Partly Cloudy,0,2014-02-02 14:15:00
7:35 AM,-11.2,-16.6,77,29.99,10.0,South,4.6,-,N/A,,Partly Cloudy,180,2014-02-02 14:35:00
7:55 AM,-9.4,-9.4,100,30.00,10.0,SSW,6.9,-,N/A,,Clear,200,2014-02-02 14:55:00
8:15 AM,-5.8,-16.6,60,30.00,10.0,South,5.8,-,N/A,,Clear,170,2014-02-02 15:15:00
8:35 AM,-2.2,-9999,N/A,30.01,10.0,South,6.9,-,N/A,,Clear,190,2014-02-02 15:35:00
8:55 AM,5.0,-2.2,72,30.01,10.0,West,8.1,-,N/A,,Clear,260,2014-02-02 15:55:00
9:15 AM,10.4,-0.4,62,30.02,10.0,West,15.0,20.7,N/A,,Clear,260,2014-02-02 16:15:00
9:35 AM,12.2,3.2,67,30.03,10.0,West,17.3,21.9,N/A,,Clear,260,2014-02-02 16:35:00
9:55 AM,12.2,3.2,67,30.02,10.0,West,21.9,26.5,N/A,,Clear,260,2014-02-02 16:55:00
10:15 AM,12.2,3.2,67,30.03,10.0,West,18.4,26.5,N/A,,Clear,270,2014-02-02 17:15:00
10:35 AM,14.0,5.0,67,30.04,10.0,West,17.3,-,N/A,,Clear,280,2014-02-02 17:35:00
10:55 AM,12.2,3.2,67,30.04,10.0,West,18.4,25.3,N/A,,Clear,280,2014-02-02 17:55:00
11:15 AM,15.8,6.8,68,30.05,10.0,West,15.0,23.0,N/A,,Mostly Cloudy,270,2014-02-02 18:15:00
11:35 AM,15.8,6.8,68,30.04,10.0,West,18.4,23.0,N/A,,Overcast,280,2014-02-02 18:35:00
11:55 AM,15.8,8.6,73,30.04,10.0,WNW,18.4,25.3,N/A,,Scattered Clouds,290,2014-02-02 18:55:00
12:15 PM,15.8,6.8,68,30.05,10.0,West,17.3,23.0,N/A,,Mostly Cloudy,280,2014-02-02 19:15:00
12:35 PM,15.8,6.8,68,30.06,10.0,West,19.6,-,N/A,,Overcast,270,2014-02-02 19:35:00
12:55 PM,15.8,8.6,73,30.06,10.0,WNW,17.3,-,N/A,,Overcast,290,2014-02-02 19:55:00
1:15 PM,15.8,6.8,68,30.05,10.0,WNW,17.3,20.7,N/A,,Overcast,290,2014-02-02 20:15:00
1:35 PM,15.8,5.0,62,30.06,10.0,WNW,15.0,18.4,N/A,,Overcast,290,2014-02-02 20:35:00
1:55 PM,14.0,5.0,67,30.07,9.0,WNW,16.1,-,N/A,,Overcast,290,2014-02-02 20:55:00
2:15 PM,15.8,5.0,62,30.06,10.0,WNW,18.4,-,N/A,,Overcast,290,2014-02-02 21:15:00
2:35 PM,14.0,6.8,73,30.07,10.0,WNW,10.4,18.4,N/A,,Overcast,300,2014-02-02 21:35:00
2:55 PM,14.0,5.0,67,30.07,10.0,WNW,11.5,19.6,N/A,,Overcast,290,2014-02-02 21:55:00
3:15 PM,14.0,5.0,67,30.08,10.0,WNW,10.4,-,N/A,,Overcast,300,2014-02-02 22:15:00
3:35 PM,14.0,6.8,73,30.07,8.0,WNW,11.5,-,N/A,,Overcast,300,2014-02-02 22:35:00
3:55 PM,14.0,6.8,73,30.07,10.0,WNW,11.5,-,N/A,,Overcast,300,2014-02-02 22:55:00
4:15 PM,14.0,6.8,73,30.07,10.0,West,9.2,-,N/A,,Overcast,280,2014-02-02 23:15:00
4:35 PM,14.0,6.8,73,30.08,10.0,West,9.2,-,N/A,,Overcast,280,2014-02-02 23:35:00
4:55 PM,14.0,5.0,67,30.08,10.0,West,6.9,-,N/A,,Overcast,280,2014-02-02 23:55:00
5:15 PM,12.2,3.2,67,30.08,10.0,West,8.1,-,N/A,,Overcast,280,2014-02-03 00:15:00
5:35 PM,12.2,3.2,67,30.08,10.0,WNW,10.4,-,N/A,,Overcast,290,2014-02-03 00:35:00
5:55 PM,12.2,3.2,67,30.08,10.0,West,5.8,-,N/A,,Overcast,280,2014-02-03 00:55:00
6:15 PM,12.2,3.2,67,30.09,10.0,WNW,4.6,-,N/A,,Overcast,300,2014-02-03 01:15:00
6:35 PM,12.2,1.4,62,30.09,10.0,West,5.8,-,N/A,,Overcast,280,2014-02-03 01:35:00
6:55 PM,12.2,3.2,67,30.08,10.0,West,4.6,-,N/A,,Overcast,280,2014-02-03 01:55:00
7:15 PM,10.4,3.2,73,30.08,10.0,WSW,4.6,-,N/A,,Overcast,240,2014-02-03 02:15:00
7:35 PM,10.4,3.2,73,30.08,10.0,Calm,Calm,-,N/A,,Overcast,0,2014-02-03 02:35:00
7:55 PM,12.2,6.8,79,30.08,10.0,SSW,3.5,-,N/A,,Overcast,200,2014-02-03 02:55:00
8:35 PM,10.4,5.0,79,30.08,10.0,South,4.6,-,N/A,,Overcast,190,2014-02-03 03:35:00
8:55 PM,10.4,3.2,73,30.08,10.0,SW,4.6,-,N/A,,Overcast,230,2014-02-03 03:55:00
9:15 PM,10.4,3.2,73,30.08,10.0,WSW,4.6,-,N/A,,Overcast,240,2014-02-03 04:15:00
9:35 PM,10.4,5.0,79,30.08,10.0,Calm,Calm,-,N/A,,Overcast,0,2014-02-03 04:35:00
9:55 PM,10.4,3.2,73,30.08,10.0,SSW,5.8,-,N/A,,Overcast,210,2014-02-03 04:55:00
10:15 PM,12.2,3.2,67,30.08,10.0,Calm,Calm,-,N/A,,Overcast,0,2014-02-03 05:15:00
10:35 PM,10.4,3.2,73,30.07,10.0,SSE,3.5,-,N/A,,Overcast,160,2014-02-03 05:35:00
10:55 PM,12.2,6.8,79,30.08,10.0,SSW,4.6,-,N/A,,Overcast,210,2014-02-03 05:55:00
11:15 PM,12.2,6.8,79,30.08,10.0,SW,3.5,-,N/A,,Overcast,230,2014-02-03 06:15:00
11:35 PM,12.2,6.8,79,30.08,10.0,SW,3.5,-,N/A,,Overcast,230,2014-02-03 06:35:00
11:55 PM,10.4,8.6,92,30.08,10.0,West,5.8,-,N/A,,Overcast,270,2014-02-03 06:55:00